^^
Grace C. Lehan Memorial Weather Station Historical Data
Daily Summary for June 22, 2021 Units:  English    Metric   Both
Daily Weekly Monthly Yearly
  High: Low: Average:
Temperature: 75.7 °F 60.1 °F 68.8 °F
Dew Point: 72 °F 56.8 °F 64.8 °F
Humidity: 95% 70.7% 88%
Wind Speed: 5.5mph 0mph 0.6mph
Wind Gust: 14mph - -
Wind- - WNW
Pressure: 29.82 in 29.56 in -
Precipitation: 0.19 in    
 
 
Tabular Data for June 22, 2021
Time Temperature Dew Point Pressure Wind Wind Speed Wind Gust Humidity Rainfall Rate (Hourly) solar
00:04 73.6 °F 70.2 °F 29.58 in Calm     89% 0.00 in 0 W/m2
00:09 73.6 °F 70.1 °F 29.58 in Calm     89% 0.00 in 0 W/m2
00:14 73.5 °F 70 °F 29.58 in Calm     89% 0.00 in 0 W/m2
00:19 73.4 °F 70 °F 29.58 in Calm     89% 0.00 in 0 W/m2
00:24 73.3 °F 69.9 °F 29.57 in Calm     89% 0.00 in 0 W/m2
00:29 73.3 °F 69.8 °F 29.58 in Calm     89% 0.00 in 0 W/m2
00:34 73.2 °F 69.8 °F 29.58 in Calm     89% 0.00 in 0 W/m2
00:39 73.2 °F 70.1 °F 29.58 in Calm     90% 0.00 in 0 W/m2
00:44 73.2 °F 70.1 °F 29.58 in Calm     90% 0.00 in 0 W/m2
00:49 73.2 °F 70.1 °F 29.58 in Calm     90% 0.00 in 0 W/m2
00:54 73.3 °F 70.2 °F 29.58 in Calm     90% 0.00 in 0 W/m2
00:59 73.3 °F 70.1 °F 29.59 in Calm     90% 0.00 in 0 W/m2
01:04 73.2 °F 70.1 °F 29.59 in Calm     90% 0.00 in 0 W/m2
01:09 73.1 °F 70 °F 29.58 in Calm     90% 0.00 in 0 W/m2
01:14 73 °F 69.9 °F 29.58 in Calm     90% 0.00 in 0 W/m2
01:19 73 °F 69.9 °F 29.58 in Calm     90% 0.00 in 0 W/m2
01:24 72.9 °F 69.8 °F 29.58 in Calm     90% 0.00 in 0 W/m2
01:29 72.8 °F 69.8 °F 29.58 in Calm     90.4% 0.00 in 0 W/m2
01:34 72.7 °F 70 °F 29.58 in Calm     91% 0.00 in 0 W/m2
01:39 72.6 °F 69.9 °F 29.58 in Calm     91% 0.00 in 0 W/m2
01:44 72.6 °F 69.8 °F 29.57 in Calm     91% 0.00 in 0 W/m2
01:49 72.5 °F 69.7 °F 29.57 in Calm     91% 0.00 in 0 W/m2
01:54 72.4 °F 69.6 °F 29.57 in Calm     91% 0.00 in 0 W/m2
01:59 72.4 °F 69.6 °F 29.57 in Calm     91% 0.00 in 0 W/m2
02:04 72.4 °F 69.6 °F 29.57 in Calm     91% 0.00 in 0 W/m2
02:09 72.3 °F 69.7 °F 29.57 in Calm     91.7% 0.00 in 0 W/m2
02:14 72.2 °F 69.8 °F 29.57 in Calm     92% 0.00 in 0 W/m2
02:19 72.2 °F 69.8 °F 29.57 in Calm     92% 0.00 in 0 W/m2
02:24 72.2 °F 69.7 °F 29.56 in Calm     92% 0.00 in 0 W/m2
02:29 72.1 °F 69.7 °F 29.57 in Calm     92% 0.00 in 0 W/m2
02:34 72.1 °F 69.7 °F 29.57 in Calm     92% 0.00 in 0 W/m2
02:39 72.1 °F 69.7 °F 29.57 in Calm     92% 0.00 in 0 W/m2
02:44 72.1 °F 69.7 °F 29.57 in Calm     92% 0.00 in 0 W/m2
02:49 72.1 °F 69.7 °F 29.57 in Calm     92% 0.00 in 0 W/m2
02:54 72.1 °F 69.7 °F 29.57 in Calm     92% 0.00 in 0 W/m2
02:59 72.1 °F 69.7 °F 29.57 in Calm     92.1% 0.00 in 0 W/m2
03:04 72.1 °F 69.9 °F 29.57 in Calm     93% 0.00 in 0 W/m2
03:09 72 °F 69.9 °F 29.57 in Calm     93% 0.00 in 0 W/m2
03:14 72 °F 69.8 °F 29.57 in Calm     92.7% 0.00 in 0 W/m2
03:19 72 °F 69.6 °F 29.57 in Calm     92% 0.00 in 0 W/m2
03:24 72 °F 69.8 °F 29.57 in Calm     92.8% 0.00 in 0 W/m2
03:29 71.9 °F 69.8 °F 29.57 in Calm     93% 0.00 in 0 W/m2
03:34 71.9 °F 69.8 °F 29.57 in Calm     93% 0.00 in 0 W/m2
03:39 71.9 °F 69.8 °F 29.57 in Calm     93% 0.00 in 0 W/m2
03:44 71.9 °F 69.8 °F 29.57 in Calm     93% 0.00 in 0 W/m2
03:49 71.9 °F 69.8 °F 29.57 in Calm     93% 0.00 in 0 W/m2
03:54 71.9 °F 69.8 °F 29.57 in Calm     93% 0.00 in 0 W/m2
03:59 71.8 °F 69.7 °F 29.57 in Calm     93% 0.00 in 0 W/m2
04:04 71.8 °F 69.7 °F 29.57 in Calm     93% 0.00 in 0 W/m2
04:09 71.7 °F 69.6 °F 29.57 in Calm     93% 0.00 in 0 W/m2
04:14 71.7 °F 69.6 °F 29.57 in Calm     93% 0.00 in 0 W/m2
04:19 71.6 °F 69.5 °F 29.57 in Calm     93% 0.00 in 0 W/m2
04:24 71.5 °F 69.4 °F 29.56 in Calm     93% 0.00 in 0 W/m2
04:29 71.5 °F 69.3 °F 29.56 in Calm     93% 0.00 in 0 W/m2
04:34 71.4 °F 69.3 °F 29.56 in Calm     93% 0.00 in 0 W/m2
04:39 71.3 °F 69.2 °F 29.56 in Calm     93% 0.00 in 0 W/m2
04:44 71.3 °F 69.2 °F 29.56 in Calm     93% 0.00 in 0 W/m2
04:49 71.2 °F 69.1 °F 29.56 in Calm     93% 0.00 in 0 W/m2
04:54 71.2 °F 69.1 °F 29.57 in Calm     93% 0.00 in 0 W/m2
04:59 71.2 °F 69.1 °F 29.57 in Calm     93% 0.00 in 0 W/m2
05:04 71.2 °F 69.2 °F 29.57 in Calm     93.3% 0.00 in 0 W/m2
05:09 71.2 °F 69.4 °F 29.57 in Calm     94% 0.00 in 0 W/m2
05:14 71.2 °F 69.4 °F 29.57 in Calm     94% 0.00 in 0 W/m2
05:19 71.2 °F 69.4 °F 29.58 in Calm     94% 0.00 in 0 W/m2
05:24 71.2 °F 69.4 °F 29.58 in Calm     94% 0.00 in 0 W/m2
05:29 71.1 °F 69.3 °F 29.58 in Calm     94% 0.00 in 5 W/m2
05:34 71.1 °F 69.3 °F 29.58 in Calm     94% 0.00 in 5 W/m2
05:39 71.1 °F 69.3 °F 29.59 in Calm     94% 0.00 in 7 W/m2
05:44 71.1 °F 69.3 °F 29.59 in Calm     94% 0.00 in 9 W/m2
05:49 71.1 °F 69.3 °F 29.59 in Calm     94% 0.00 in 11 W/m2
05:54 71.1 °F 69.3 °F 29.59 in Calm     94% 0.00 in 11 W/m2
05:59 71.1 °F 69.3 °F 29.59 in Calm     94% 0.00 in 11 W/m2
06:04 71.2 °F 69.4 °F 29.59 in Calm     94% 0.00 in 12 W/m2
06:09 71.2 °F 69.4 °F 29.59 in Calm     94% 0.00 in 19 W/m2
06:14 71.2 °F 69.4 °F 29.59 in Calm     94% 0.00 in 25 W/m2
06:19 71.3 °F 69.5 °F 29.59 in Calm     94% 0.00 in 26 W/m2
06:24 71.3 °F 69.5 °F 29.60 in Calm     94% 0.00 in 23 W/m2
06:29 71.4 °F 69.6 °F 29.60 in Calm     94% 0.00 in 23 W/m2
06:34 71.5 °F 69.9 °F 29.60 in Calm     94.5% 0.00 in 28 W/m2
06:39 71.5 °F 70 °F 29.61 in Calm     95% 0.00 in 39 W/m2
06:44 71.6 °F 70.1 °F 29.61 in Calm     95% 0.00 in 54 W/m2
06:49 71.7 °F 70.2 °F 29.61 in Calm     95% 0.00 in 56 W/m2
06:54 71.8 °F 70.2 °F 29.61 in Calm     94.7% 0.00 in 54 W/m2
06:59 72 °F 70.3 °F 29.61 in Calm     94.5% 0.00 in 58 W/m2
07:04 72.1 °F 70.6 °F 29.62 in Calm     95% 0.00 in 67 W/m2
07:09 72.3 °F 70.8 °F 29.62 in Calm     95% 0.00 in 69 W/m2
07:14 72.6 °F 71.1 °F 29.62 in Calm     95% 0.00 in 79 W/m2
07:19 73 °F 71.5 °F 29.63 in Calm     95% 0.00 in 60 W/m2
07:24 73.2 °F 71.4 °F 29.63 in Calm     94.4% 0.00 in 102 W/m2
07:29 73.3 °F 71.5 °F 29.63 in Calm     94% 0.00 in 165 W/m2
07:34 73.6 °F 71.8 °F 29.63 in Calm     94% 0.00 in 227 W/m2
07:39 74 °F 72 °F 29.62 in Calm     93.5% 0.00 in 227 W/m2
07:44 74.3 °F 71.7 °F 29.63 in SW 0.4 mph 3 mph 91.7% 0.00 in 54 W/m2
07:49 74.4 °F 71.3 °F 29.64 in WSW 0.3 mph 4 mph 90% 0.00 in 44 W/m2
07:54 74.6 °F 71.1 °F 29.64 in Calm   4 mph 89% 0.00 in 49 W/m2
07:59 74.6 °F 71.2 °F 29.64 in West 0.1 mph 4 mph 89% 0.00 in 46 W/m2
08:00 74.6 °F 71.2 °F 29.64 in Calm   4 mph 89% 0.00 in 44 W/m2
08:09 74.3 °F 69.6 °F 29.65 in ENE 0.1 mph 2 mph 85.5% 0.00 in 46 W/m2
08:14 74 °F 69 °F 29.65 in NNW 0.4 mph 5 mph 84.2% 0.00 in 44 W/m2
08:19 73.9 °F 68.4 °F 29.65 in NNW 0.2 mph 5 mph 83.1% 0.00 in 90 W/m2
08:24 73.8 °F 68.1 °F 29.65 in Calm   5 mph 82.5% 0.00 in 81 W/m2
08:29 73.7 °F 68.1 °F 29.65 in NNW 0.3 mph 5 mph 82.5% 0.00 in 144 W/m2
08:34 73.8 °F 68.1 °F 29.65 in NNW 0.5 mph 5 mph 82.4% 0.00 in 202 W/m2
08:39 73.9 °F 67.6 °F 29.65 in NW 1.3 mph 7 mph 80.8% 0.00 in 612 W/m2
08:44 74.4 °F 68.1 °F 29.65 in NW 1.2 mph 7 mph 81% 0.00 in 612 W/m2
08:49 75.1 °F 68 °F 29.65 in NNW 1.4 mph 7 mph 78.7% 0.00 in 285 W/m2
08:54 75.5 °F 67.8 °F 29.65 in NW 1.4 mph 11 mph 76.9% 0.00 in 213 W/m2
08:59 75.6 °F 67.2 °F 29.66 in WNW 1.8 mph 11 mph 75.1% 0.00 in 265 W/m2
09:04 75.6 °F 67.3 °F 29.66 in NNW 1.2 mph 11 mph 75.5% 0.00 in 355 W/m2
09:09 75.6 °F 66.7 °F 29.66 in North 0.1 mph 7 mph 73.9% 0.00 in 417 W/m2
09:14 75.7 °F 66.5 °F 29.66 in NW 2.7 mph 9 mph 73.3% 0.00 in 220 W/m2
09:19 75.5 °F 65.8 °F 29.66 in NW 1.2 mph 9 mph 71.9% 0.00 in 169 W/m2
09:24 75.2 °F 65.5 °F 29.67 in NNW 2.5 mph 14 mph 71.9% 0.00 in 204 W/m2
09:29 74.7 °F 64.6 °F 29.67 in NNW 2.4 mph 14 mph 70.7% 0.00 in 156 W/m2
09:34 74.3 °F 64.7 °F 29.66 in NW 1.7 mph 14 mph 72% 0.00 in 134 W/m2
09:39 73.9 °F 64.3 °F 29.67 in NW 1.1 mph 9 mph 72% 0.00 in 134 W/m2
09:44 73.6 °F 64.6 °F 29.67 in NW 0.6 mph 9 mph 73.4% 0.00 in 264 W/m2
09:49 73.5 °F 64.7 °F 29.67 in NW 0.8 mph 9 mph 73.9% 0.00 in 264 W/m2
09:54 73.5 °F 64.9 °F 29.67 in NW 0.7 mph 9 mph 74.3% 0.00 in 236 W/m2
09:59 73.7 °F 65 °F 29.67 in NNW 2.1 mph 9 mph 74.4% 0.00 in 279 W/m2
10:04 73.8 °F 64.5 °F 29.67 in NNW 4.3 mph 13 mph 72.8% 0.00 in 279 W/m2
10:09 73.6 °F 64.1 °F 29.67 in NW 2.4 mph 13 mph 72% 0.00 in 200 W/m2
10:14 73.6 °F 64.8 °F 29.68 in Calm   13 mph 74% 0.00 in 183 W/m2
10:19 73.6 °F 64.4 °F 29.68 in WNW 3.2 mph 13 mph 72.8% 0.00 in 297 W/m2
10:24 73.5 °F 63.7 °F 29.67 in NW 2.4 mph 13 mph 71.3% 0.00 in 313 W/m2
10:29 73.5 °F 64.2 °F 29.68 in WNW 2.5 mph 13 mph 72.7% 0.00 in 313 W/m2
10:34 73.6 °F 63.8 °F 29.68 in NW 4 mph 14 mph 71.5% 0.00 in 311 W/m2
10:39 73.5 °F 63.6 °F 29.68 in NW 4.5 mph 14 mph 71.2% 0.00 in 202 W/m2
10:44 73.4 °F 63.5 °F 29.68 in NW 1.5 mph 14 mph 71.3% 0.00 in 218 W/m2
10:49 73.2 °F 63.8 °F 29.68 in WNW 3.2 mph 14 mph 72.3% 0.00 in 218 W/m2
10:54 73.1 °F 63.3 °F 29.69 in WNW 4.2 mph 14 mph 71.3% 0.00 in 221 W/m2
10:59 72.9 °F 62.9 °F 29.69 in WNW 3.8 mph 14 mph 71% 0.00 in 334 W/m2
11:04 72.7 °F 62.8 °F 29.69 in WNW 3.1 mph 14 mph 71.2% 0.00 in 209 W/m2
11:09 72.4 °F 62.6 °F 29.69 in WNW 2.7 mph 11 mph 71.4% 0.00 in 132 W/m2
11:14 72.1 °F 62.2 °F 29.69 in WNW 1.7 mph 11 mph 71.2% 0.00 in 130 W/m2
11:19 71.8 °F 62.3 °F 29.69 in NW 1.3 mph 11 mph 72% 0.00 in 120 W/m2
11:24 71.7 °F 62.5 °F 29.70 in NW 0.8 mph 11 mph 72.9% 0.00 in 116 W/m2
11:29 71.5 °F 62.6 °F 29.69 in NNW 1.2 mph 11 mph 73.3% 0.00 in 123 W/m2
11:34 71.4 °F 62.1 °F 29.69 in NNW 1.6 mph 11 mph 72.3% 0.00 in 165 W/m2
11:39 71.3 °F 62 °F 29.68 in NNW 1.3 mph 9 mph 72.7% 0.00 in 179 W/m2
11:44 71.2 °F 62.7 °F 29.69 in NNW 1 mph 9 mph 74.6% 0.00 in 183 W/m2
11:49 71 °F 62.6 °F 29.69 in NW 0.9 mph 9 mph 74.7% 0.00 in 134 W/m2
11:54 70.8 °F 63.2 °F 29.69 in NW 0.4 mph 9 mph 76.7% 0.00 in 148 W/m2
11:59 70.8 °F 63.4 °F 29.69 in NW 0.6 mph 9 mph 77.5% 0.00 in 195 W/m2
12:00 70.8 °F 63.2 °F 29.69 in WNW 5.5 mph 9 mph 77% 0.00 in 195 W/m2
12:09 70.7 °F 62.6 °F 29.69 in North 1.8 mph 7 mph 75.4% 0.00 in 181 W/m2
12:14 70.7 °F 62.4 °F 29.69 in North 1 mph 7 mph 75.2% 0.00 in 241 W/m2
12:19 70.5 °F 62 °F 29.69 in NNW 0.8 mph 7 mph 74.5% 0.00 in 241 W/m2
12:24 70.6 °F 62.4 °F 29.69 in NW 0.5 mph 7 mph 75.3% 0.00 in 172 W/m2
12:29 70.7 °F 62.6 °F 29.69 in NNW 0.6 mph 7 mph 75.6% 0.00 in 178 W/m2
12:34 70.8 °F 61.9 °F 29.69 in NNW 2.1 mph 7 mph 73.4% 0.00 in 181 W/m2
12:39 70.8 °F 61.4 °F 29.70 in NW 2.3 mph 11 mph 72.1% 0.00 in 130 W/m2
12:44 70.6 °F 61.6 °F 29.70 in NW 1.4 mph 11 mph 73% 0.00 in 97 W/m2
12:49 70.4 °F 61.4 °F 29.71 in NNW 0.7 mph 11 mph 73% 0.00 in 74 W/m2
12:54 70.2 °F 61.4 °F 29.71 in NNW 0.7 mph 11 mph 73.6% 0.00 in 69 W/m2
12:59 69.9 °F 61.2 °F 29.72 in NW 1.5 mph 11 mph 73.8% 0.00 in 58 W/m2
13:04 69.7 °F 61.1 °F 29.71 in NW 0.4 mph 11 mph 74% 0.00 in 56 W/m2
13:09 69.5 °F 61.3 °F 29.71 in NW 0.6 mph 6 mph 75.1% 0.00 in 47 W/m2
13:14 69.5 °F 61.8 °F 29.71 in NW 0.9 mph 9 mph 76.5% 0.01 in 58 W/m2
13:19 69.3 °F 62.1 °F 29.71 in WNW 1.2 mph 9 mph 77.6% 0.01 in 53 W/m2
13:24 69 °F 62.3 °F 29.71 in NW 1 mph 9 mph 79.3% 0.01 in 47 W/m2
13:29 68.6 °F 62.4 °F 29.71 in NW 1 mph 9 mph 80.7% 0.01 in 88 W/m2
13:34 68.3 °F 62.5 °F 29.70 in NNE 0.2 mph 9 mph 81.7% 0.01 in 105 W/m2
13:39 68 °F 62.4 °F 29.69 in NNW 0.6 mph 4 mph 82.3% 0.01 in 105 W/m2
13:44 67.7 °F 62.1 °F 29.69 in NNW 0.8 mph 4 mph 82.3% 0.01 in 63 W/m2
13:49 67.5 °F 62.2 °F 29.69 in NW 0.7 mph 4 mph 83% 0.01 in 35 W/m2
13:54 67.3 °F 61.9 °F 29.69 in NW 0.7 mph 5 mph 83% 0.02 in 42 W/m2
13:59 67 °F 62 °F 29.69 in NW 1.4 mph 9 mph 83.9% 0.02 in 42 W/m2
14:04 66.6 °F 61.9 °F 29.70 in NW 1.9 mph 9 mph 84.7% 0.02 in 37 W/m2
14:09 66.2 °F 61.5 °F 29.70 in NW 1.4 mph 6 mph 85% 0.02 in 37 W/m2
14:14 65.8 °F 61.1 °F 29.70 in NW 1.3 mph 10 mph 85% 0.02 in 53 W/m2
14:19 65.4 °F 60.8 °F 29.70 in NW 0.5 mph 10 mph 85% 0.02 in 58 W/m2
14:24 65.2 °F 60.6 °F 29.70 in NW 0.7 mph 10 mph 85.1% 0.02 in 56 W/m2
14:29 65.1 °F 60.8 °F 29.70 in NW 0.2 mph 10 mph 86% 0.02 in 42 W/m2
14:34 65 °F 60.9 °F 29.70 in Calm   10 mph 86.5% 0.02 in 37 W/m2
14:39 64.9 °F 61 °F 29.70 in NW 0.1 mph 3 mph 87% 0.01 in 47 W/m2
14:44 64.9 °F 60.9 °F 29.69 in NW 0.2 mph 3 mph 87% 0.02 in 63 W/m2
14:49 64.8 °F 60.9 °F 29.69 in North 0.2 mph 5 mph 87.2% 0.03 in 70 W/m2
14:54 64.6 °F 60.9 °F 29.69 in North 0.4 mph 5 mph 87.6% 0.03 in 53 W/m2
14:59 64.5 °F 61.1 °F 29.69 in NNW 0.2 mph 5 mph 88.7% 0.04 in 58 W/m2
15:04 64.4 °F 61.2 °F 29.69 in Calm   5 mph 89.2% 0.04 in 47 W/m2
15:09 64.4 °F 61.4 °F 29.69 in NNW 0.1 mph 3 mph 90% 0.03 in 33 W/m2
15:14 64.3 °F 61.3 °F 29.69 in Calm   3 mph 90% 0.04 in 47 W/m2
15:19 64 °F 61.1 °F 29.70 in NNW 0.5 mph 4 mph 90% 0.04 in 53 W/m2
15:24 63.9 °F 61 °F 29.71 in Calm   4 mph 90.3% 0.05 in 56 W/m2
15:29 63.9 °F 61.2 °F 29.71 in Calm   4 mph 91% 0.06 in 63 W/m2
15:34 64 °F 61.3 °F 29.71 in Calm   4 mph 91% 0.06 in 77 W/m2
15:39 63.9 °F 61.3 °F 29.71 in Calm     91.1% 0.06 in 74 W/m2
15:44 63.9 °F 61.5 °F 29.71 in Calm     92% 0.07 in 100 W/m2
15:49 64 °F 61.6 °F 29.70 in Calm     92% 0.07 in 100 W/m2
15:54 63.9 °F 61.6 °F 29.70 in Calm     92% 0.07 in 88 W/m2
15:59 64 °F 61.7 °F 29.70 in Calm     92% 0.07 in 86 W/m2
16:00 64.1 °F 61.7 °F 29.69 in Calm     92% 0.07 in 77 W/m2
16:09 64.1 °F 61.7 °F 29.69 in North 0.1 mph 2 mph 92% 0.04 in 62 W/m2
16:14 63.9 °F 61.5 °F 29.70 in Calm   2 mph 92% 0.04 in 51 W/m2
16:19 63.9 °F 61.5 °F 29.70 in Calm   2 mph 92% 0.04 in 67 W/m2
16:24 63.9 °F 61.5 °F 29.70 in Calm   2 mph 92% 0.04 in 70 W/m2
16:29 63.9 °F 61.6 °F 29.71 in Calm   2 mph 92.2% 0.04 in 76 W/m2
16:34 64.1 °F 62 °F 29.70 in Calm   2 mph 93% 0.04 in 60 W/m2
16:39 64.3 °F 62.2 °F 29.69 in Calm     93% 0.02 in 62 W/m2
16:44 64.3 °F 62.2 °F 29.70 in Calm     93% 0.03 in 60 W/m2
16:49 64.3 °F 62.2 °F 29.71 in Calm     93% 0.03 in 32 W/m2
16:54 64.3 °F 62.2 °F 29.71 in NNE 0.2 mph 2 mph 93% 0.03 in 37 W/m2
16:59 64.2 °F 62.1 °F 29.71 in North 0.1 mph 2 mph 93% 0.03 in 39 W/m2
17:04 64.1 °F 62.1 °F 29.71 in NW 0.5 mph 4 mph 93% 0.03 in 56 W/m2
17:09 64.1 °F 62 °F 29.71 in NW 0.5 mph 4 mph 93% 0.02 in 56 W/m2
17:14 64.2 °F 62.1 °F 29.69 in NW 1 mph 4 mph 93% 0.02 in 51 W/m2
17:19 64.1 °F 62 °F 29.69 in NW 0.8 mph 5 mph 93% 0.03 in 32 W/m2
17:24 63.9 °F 61.8 °F 29.74 in WNW 1.6 mph 9 mph 93% 0.03 in 30 W/m2
17:29 63.8 °F 61.7 °F 29.75 in West 2.5 mph 9 mph 93% 0.03 in 35 W/m2
17:34 63.8 °F 61.7 °F 29.74 in WNW 4.4 mph 13 mph 93% 0.03 in 42 W/m2
17:39 63.7 °F 61.7 °F 29.73 in WNW 2.5 mph 13 mph 93% 0.03 in 42 W/m2
17:44 63.7 °F 61.6 °F 29.74 in WNW 0.5 mph 13 mph 93% 0.04 in 33 W/m2
17:49 63.5 °F 61.5 °F 29.74 in Calm   13 mph 93% 0.04 in 30 W/m2
17:54 63.4 °F 61.3 °F 29.74 in Calm   13 mph 93% 0.04 in 28 W/m2
17:59 63.1 °F 60.9 °F 29.73 in WNW 0.1 mph 13 mph 92.4% 0.04 in 23 W/m2
18:04 63 °F 60.8 °F 29.72 in NW 0.1 mph 13 mph 92.5% 0.04 in 25 W/m2
18:09 63.1 °F 61 °F 29.72 in NW 0.3 mph 4 mph 93% 0.02 in 25 W/m2
18:14 63.1 °F 61.1 °F 29.72 in Calm   4 mph 93% 0.02 in 25 W/m2
18:19 63 °F 61 °F 29.72 in Calm   4 mph 93% 0.02 in 30 W/m2
18:24 63 °F 61 °F 29.71 in Calm   4 mph 93% 0.02 in 30 W/m2
18:29 62.9 °F 60.8 °F 29.70 in Calm   4 mph 92.7% 0.02 in 25 W/m2
18:34 62.7 °F 60.4 °F 29.70 in Calm   4 mph 92% 0.02 in 21 W/m2
18:39 62.6 °F 60.6 °F 29.69 in Calm   1 mph 93% 0.01 in 19 W/m2
18:44 62.7 °F 60.6 °F 29.68 in Calm   1 mph 93% 0.01 in 16 W/m2
18:49 62.4 °F 60.3 °F 29.68 in Calm   1 mph 92.7% 0.02 in 12 W/m2
18:54 62.2 °F 59.9 °F 29.67 in Calm   1 mph 92% 0.02 in 12 W/m2
18:59 62.1 °F 59.7 °F 29.67 in ENE 0.7 mph 4 mph 92% 0.02 in 11 W/m2
19:04 62 °F 59.9 °F 29.67 in ENE 0.2 mph 4 mph 92.9% 0.02 in 7 W/m2
19:09 61.9 °F 59.9 °F 29.68 in ENE 0.3 mph 3 mph 93% 0.02 in 9 W/m2
19:14 61.8 °F 59.8 °F 29.70 in Calm   3 mph 93% 0.02 in 7 W/m2
19:19 61.8 °F 59.8 °F 29.72 in Calm   3 mph 93% 0.03 in 7 W/m2
19:24 61.9 °F 59.9 °F 29.73 in WNW 0.7 mph 5 mph 93% 0.03 in 5 W/m2
19:29 61.9 °F 59.9 °F 29.73 in Calm   5 mph 93% 0.04 in 0 W/m2
19:34 61.9 °F 59.8 °F 29.72 in Calm   5 mph 93% 0.05 in 7 W/m2
19:39 61.7 °F 59.7 °F 29.72 in NW 0.8 mph 6 mph 93% 0.06 in 9 W/m2
19:44 61.7 °F 59.6 °F 29.73 in NW 0.1 mph 6 mph 93% 0.06 in 5 W/m2
19:49 61.6 °F 59.5 °F 29.73 in NW 0.1 mph 6 mph 93% 0.06 in 0 W/m2
19:54 61.4 °F 59.4 °F 29.73 in NW 1.3 mph 7 mph 93% 0.06 in 0 W/m2
19:59 61.3 °F 59.3 °F 29.74 in NW 0.4 mph 7 mph 93% 0.06 in 0 W/m2
20:00 61.3 °F 59.3 °F 29.74 in Calm   7 mph 93% 0.06 in 0 W/m2
20:09 61.1 °F 59.1 °F 29.74 in WNW 1.9 mph 9 mph 93% 0.05 in 7 W/m2
20:14 61 °F 59 °F 29.74 in NNE 0.1 mph 9 mph 93% 0.05 in 7 W/m2
20:19 61 °F 59 °F 29.74 in WNW 3 mph 9 mph 93% 0.05 in 7 W/m2
20:24 60.8 °F 58.8 °F 29.75 in NW 1.4 mph 10 mph 93% 0.05 in 5 W/m2
20:29 60.7 °F 58.7 °F 29.75 in West 1.5 mph 10 mph 93% 0.05 in 0 W/m2
20:34 60.7 °F 58.7 °F 29.75 in NW 1.8 mph 13 mph 93% 0.05 in 0 W/m2
20:39 60.6 °F 58.6 °F 29.75 in NNW 1.4 mph 13 mph 92.9% 0.02 in 0 W/m2
20:44 60.5 °F 58.2 °F 29.76 in NW 1.2 mph 13 mph 92% 0.02 in 0 W/m2
20:49 60.5 °F 58.2 °F 29.76 in NW 0.9 mph 13 mph 92% 0.02 in 0 W/m2
20:54 60.5 °F 58.2 °F 29.77 in NW 0.9 mph 13 mph 92% 0.02 in 0 W/m2
20:59 60.5 °F 58.2 °F 29.77 in Calm   13 mph 92% 0.02 in 0 W/m2
21:04 60.5 °F 58.1 °F 29.77 in Calm   13 mph 92% 0.02 in 0 W/m2
21:09 60.4 °F 58.1 °F 29.77 in NW 1.6 mph 10 mph 92% 0.00 in 0 W/m2
21:14 60.3 °F 58 °F 29.78 in WNW 0.3 mph 10 mph 92% 0.00 in 0 W/m2
21:19 60.3 °F 58 °F 29.79 in NW 0.1 mph 10 mph 92% 0.00 in 0 W/m2
21:24 60.3 °F 57.8 °F 29.79 in NNW 0.9 mph 10 mph 91.5% 0.00 in 0 W/m2
21:29 60.2 °F 57.6 °F 29.80 in North 0.2 mph 10 mph 91% 0.00 in 0 W/m2
21:34 60.2 °F 57.6 °F 29.80 in NW 1.1 mph 10 mph 91% 0.00 in 0 W/m2
21:39 60.2 °F 57.6 °F 29.81 in WNW 0.1 mph 10 mph 91% 0.00 in 0 W/m2
21:44 60.2 °F 57.4 °F 29.81 in West 3 mph 10 mph 90.5% 0.00 in 0 W/m2
21:49 60.2 °F 57.2 °F 29.82 in WNW 3.7 mph 14 mph 90% 0.00 in 0 W/m2
21:54 60.2 °F 57.3 °F 29.82 in West 1.2 mph 14 mph 90% 0.00 in 0 W/m2
21:59 60.1 °F 57.1 °F 29.82 in NW 1.9 mph 14 mph 89.8% 0.00 in 0 W/m2
22:03 60.1 °F 56.8 °F 29.82 in WNW 1.3 mph 14 mph 89% 0.00 in 0 W/m2
Hartford County Weather
Compliments of Weather Underground - 4 mb